createdAt,value
2023-04-30T00:00:11.403Z,11.87
2023-04-30T00:02:39.761Z,11.18
2023-04-30T00:05:07.537Z,10.90
2023-04-30T00:07:34.747Z,10.30
2023-04-30T00:10:03.152Z,10.37
2023-04-30T00:12:30.487Z,10.67
2023-04-30T00:14:57.738Z,9.30
2023-04-30T00:17:25.381Z,10.60
2023-04-30T00:19:53.231Z,9.67
2023-04-30T00:22:20.755Z,8.73
2023-04-30T00:24:48.443Z,9.87
2023-04-30T00:27:15.707Z,10.30
2023-04-30T00:29:44.075Z,8.52
2023-04-30T00:32:11.774Z,8.07
2023-04-30T00:34:39.276Z,7.90
2023-04-30T00:37:06.543Z,8.03
2023-04-30T00:39:34.167Z,8.60
2023-04-30T00:42:02.696Z,8.03
2023-04-30T00:44:29.979Z,8.63
2023-04-30T00:46:57.555Z,9.33
2023-04-30T00:49:24.825Z,10.30
2023-04-30T00:51:54.498Z,9.47
2023-04-30T00:54:24.008Z,10.87
2023-04-30T00:56:52.294Z,10.37
2023-04-30T00:59:19.700Z,10.40
2023-04-30T01:01:47.710Z,10.70
2023-04-30T01:04:15.121Z,11.70
2023-04-30T01:06:43.603Z,9.47
2023-04-30T01:09:11.554Z,10.55
2023-04-30T01:11:57.886Z,9.93
2023-04-30T01:14:31.688Z,10.17
2023-04-30T01:17:36.832Z,8.93
2023-04-30T01:20:06.222Z,8.50
2023-04-30T01:23:03.177Z,8.17
2023-04-30T01:26:11.864Z,7.40
2023-04-30T01:28:42.876Z,8.55
2023-04-30T01:31:20.090Z,8.57
2023-04-30T01:33:47.542Z,8.30
2023-04-30T01:36:37.626Z,8.00
2023-04-30T01:39:37.266Z,7.10
2023-04-30T01:42:22.294Z,8.07
2023-04-30T01:45:07.273Z,9.03
2023-04-30T01:48:27.148Z,16.43
2023-04-30T01:51:02.359Z,12.13
2023-04-30T01:53:40.418Z,11.93
2023-04-30T01:56:14.172Z,10.67
2023-04-30T01:58:42.772Z,10.03
2023-04-30T02:01:29.890Z,9.38
2023-04-30T02:03:58.181Z,8.20
2023-04-30T02:06:30.385Z,7.73
2023-04-30T02:09:03.562Z,7.67
2023-04-30T02:11:31.111Z,8.00
2023-04-30T02:13:58.696Z,7.90
2023-04-30T02:16:26.551Z,7.27
2023-04-30T02:18:54.426Z,7.00
2023-04-30T02:21:21.782Z,8.13
2023-04-30T02:23:49.939Z,7.50
2023-04-30T02:26:17.623Z,17.07
2023-04-30T02:28:45.078Z,20.30
2023-04-30T02:31:12.534Z,17.77
2023-04-30T02:33:40.176Z,26.03
2023-04-30T02:36:07.830Z,17.17
2023-04-30T02:38:35.286Z,19.97
2023-04-30T02:41:03.614Z,11.77
2023-04-30T02:43:31.009Z,8.10
2023-04-30T02:45:58.302Z,7.60
2023-04-30T02:48:26.010Z,8.37
2023-04-30T02:50:53.425Z,10.50
2023-04-30T02:53:20.963Z,10.17
2023-04-30T02:55:49.982Z,10.77
2023-04-30T02:58:17.307Z,66.83
2023-04-30T03:00:44.636Z,40.27
2023-04-30T03:03:12.588Z,14.27
2023-04-30T03:05:40.309Z,12.07
2023-04-30T03:08:07.877Z,11.67
2023-04-30T03:10:35.672Z,11.80
2023-04-30T03:13:02.986Z,11.27
2023-04-30T03:15:33.146Z,10.80
2023-04-30T03:18:00.878Z,10.97
2023-04-30T03:20:28.178Z,7.33
2023-04-30T03:22:55.524Z,7.77
2023-04-30T03:25:23.262Z,8.30
2023-04-30T03:27:50.602Z,7.97
2023-04-30T03:30:18.028Z,7.33
2023-04-30T03:32:45.878Z,8.23
2023-04-30T03:35:13.368Z,6.03
2023-04-30T03:37:40.952Z,6.37
2023-04-30T03:40:09.094Z,7.10
2023-04-30T03:42:36.316Z,7.87
2023-04-30T03:45:04.466Z,15.53
2023-04-30T03:47:32.115Z,14.15
2023-04-30T03:49:59.453Z,9.87
2023-04-30T03:52:26.902Z,9.27
2023-04-30T03:54:54.671Z,9.13
2023-04-30T03:57:22.438Z,9.63
2023-04-30T04:00:08.365Z,11.80
2023-04-30T04:02:52.094Z,11.60
2023-04-30T04:05:26.809Z,15.23
2023-04-30T04:07:54.445Z,15.90
2023-04-30T04:10:22.507Z,19.17
2023-04-30T04:12:49.905Z,12.23
2023-04-30T04:15:17.224Z,10.73
2023-04-30T04:17:45.104Z,10.23
2023-04-30T04:20:14.134Z,10.60
2023-04-30T04:22:43.143Z,14.40
2023-04-30T04:25:11.027Z,13.63
2023-04-30T04:27:39.338Z,19.17
2023-04-30T04:30:07.331Z,16.10
2023-04-30T04:32:46.734Z,15.80
2023-04-30T04:35:21.204Z,12.00
2023-04-30T04:37:49.384Z,8.63
2023-04-30T04:40:20.093Z,7.60
2023-04-30T04:42:51.598Z,6.83
2023-04-30T04:45:21.109Z,9.03
2023-04-30T04:47:49.424Z,8.83
2023-04-30T04:50:17.691Z,10.57
2023-04-30T04:52:45.656Z,8.50
2023-04-30T04:55:13.546Z,9.93
2023-04-30T04:57:42.700Z,9.07
2023-04-30T05:00:11.963Z,7.63
2023-04-30T05:02:39.312Z,7.90
2023-04-30T05:05:11.186Z,9.40
2023-04-30T05:07:39.715Z,9.80
2023-04-30T05:10:08.262Z,11.30
2023-04-30T05:12:36.089Z,15.02
2023-04-30T05:15:04.806Z,16.80
2023-04-30T05:17:32.218Z,17.27
2023-04-30T05:19:59.616Z,19.97
2023-04-30T05:22:27.200Z,16.30
2023-04-30T05:24:54.695Z,13.60
2023-04-30T05:27:25.733Z,12.23
2023-04-30T05:29:55.786Z,10.10
2023-04-30T05:32:24.184Z,11.30
2023-04-30T05:34:51.788Z,10.53
2023-04-30T05:37:21.264Z,8.77
2023-04-30T05:39:54.521Z,8.10
2023-04-30T05:42:25.615Z,7.23
2023-04-30T05:44:53.467Z,6.30
2023-04-30T05:47:20.871Z,6.40
2023-04-30T05:49:48.541Z,5.83
2023-04-30T05:52:17.708Z,6.10
2023-04-30T05:54:50.031Z,6.32
2023-04-30T05:57:17.941Z,5.83
2023-04-30T05:59:45.506Z,6.27
2023-04-30T06:02:14.509Z,5.57
2023-04-30T06:04:43.613Z,6.80
2023-04-30T06:07:11.248Z,6.90
2023-04-30T06:09:38.634Z,6.70
2023-04-30T06:12:06.487Z,6.47
2023-04-30T06:14:33.981Z,7.67
2023-04-30T06:17:01.386Z,7.77
2023-04-30T06:19:29.167Z,8.70
2023-04-30T06:21:56.521Z,7.83
2023-04-30T06:24:24.081Z,8.07
2023-04-30T06:26:52.239Z,8.00
2023-04-30T06:29:20.297Z,7.40
2023-04-30T06:31:51.997Z,7.20
2023-04-30T06:34:21.286Z,8.10
2023-04-30T06:36:48.756Z,7.53
2023-04-30T06:39:17.240Z,7.80
2023-04-30T06:41:45.336Z,13.20
2023-04-30T06:44:13.304Z,10.63
2023-04-30T06:46:42.455Z,10.65
2023-04-30T06:49:10.423Z,12.37
2023-04-30T06:51:38.020Z,12.77
2023-04-30T06:54:06.440Z,11.33
2023-04-30T06:56:39.802Z,11.18
2023-04-30T06:59:07.895Z,14.53
2023-04-30T07:01:35.632Z,14.50
2023-04-30T07:04:03.177Z,9.77
2023-04-30T07:06:30.994Z,10.53
2023-04-30T07:08:59.132Z,10.70
2023-04-30T07:11:26.949Z,12.17
2023-04-30T07:13:54.454Z,14.33
2023-04-30T07:16:23.536Z,12.80
2023-04-30T07:18:50.858Z,11.30
2023-04-30T07:21:18.889Z,10.93
2023-04-30T07:23:46.957Z,11.83
2023-04-30T07:26:15.247Z,13.77
2023-04-30T07:28:42.910Z,10.87
2023-04-30T07:33:39.153Z,9.17
2023-04-30T07:36:06.831Z,7.33
2023-04-30T07:38:34.685Z,8.57
2023-04-30T07:41:02.488Z,8.23
2023-04-30T07:43:34.614Z,6.23
2023-04-30T07:46:02.751Z,8.07
2023-04-30T07:48:34.878Z,7.37
2023-04-30T07:51:11.436Z,5.97
2023-04-30T07:53:38.863Z,5.20
2023-04-30T07:56:07.573Z,5.73
2023-04-30T07:58:35.058Z,4.82
2023-04-30T08:01:02.554Z,6.50
2023-04-30T08:03:30.547Z,5.40
2023-04-30T08:05:58.707Z,4.97
2023-04-30T08:08:26.489Z,4.57
2023-04-30T08:10:54.988Z,5.23
2023-04-30T08:13:22.597Z,5.00
2023-04-30T08:15:50.351Z,4.90
2023-04-30T08:18:18.174Z,11.07
2023-04-30T08:20:45.739Z,5.17
2023-04-30T08:23:13.035Z,4.60
2023-04-30T08:25:40.955Z,4.93
2023-04-30T08:28:08.327Z,5.60
2023-04-30T08:30:36.527Z,6.80
2023-04-30T08:35:32.593Z,4.97
2023-04-30T08:38:00.934Z,5.43
2023-04-30T08:40:49.330Z,5.72
2023-04-30T08:43:20.302Z,5.30
2023-04-30T08:45:51.432Z,5.73
2023-04-30T08:48:19.498Z,6.60
2023-04-30T08:50:47.325Z,5.63
2023-04-30T08:53:17.716Z,5.60
2023-04-30T08:55:45.255Z,6.20
2023-04-30T08:58:12.698Z,5.73
2023-04-30T09:00:40.965Z,6.40
2023-04-30T09:03:09.023Z,5.80
2023-04-30T09:05:38.286Z,7.10
2023-04-30T09:08:08.102Z,6.40
2023-04-30T09:10:36.112Z,5.40
2023-04-30T09:13:09.918Z,6.03
2023-04-30T09:15:41.369Z,6.30
2023-04-30T09:18:21.350Z,5.80
2023-04-30T09:20:58.591Z,7.00
2023-04-30T09:23:26.518Z,9.43
2023-04-30T09:25:55.100Z,6.82
2023-04-30T09:28:31.962Z,6.90
2023-04-30T09:31:00.203Z,6.43
2023-04-30T09:33:27.818Z,6.87
2023-04-30T09:35:55.267Z,6.27
2023-04-30T09:38:31.976Z,5.43
2023-04-30T09:41:01.125Z,5.07
2023-04-30T09:43:30.099Z,5.30
2023-04-30T09:45:59.981Z,5.72
2023-04-30T09:48:28.983Z,5.53
2023-04-30T09:50:58.804Z,5.18
2023-04-30T09:53:34.585Z,4.65
2023-04-30T09:56:07.637Z,4.45
2023-04-30T09:58:39.336Z,5.15
2023-04-30T10:01:11.914Z,4.90
2023-04-30T10:03:44.674Z,5.12
2023-04-30T10:06:15.909Z,4.45
2023-04-30T10:08:46.899Z,4.00
2023-04-30T10:11:20.015Z,3.58
2023-04-30T10:13:56.029Z,2.80
2023-04-30T10:16:55.322Z,4.20
2023-04-30T10:19:26.083Z,3.80
2023-04-30T10:21:54.089Z,3.62
2023-04-30T10:24:21.991Z,2.60
2023-04-30T10:26:51.070Z,3.55
2023-04-30T10:29:19.484Z,4.43
2023-04-30T10:31:49.729Z,3.72
2023-04-30T10:35:01.463Z,5.07
2023-04-30T10:38:04.517Z,6.32
2023-04-30T10:40:38.808Z,5.65
2023-04-30T10:43:07.107Z,5.18
2023-04-30T10:45:38.206Z,2.67
2023-04-30T10:48:07.459Z,2.72
2023-04-30T10:50:49.885Z,1.75
2023-04-30T10:53:20.961Z,1.90
2023-04-30T10:55:58.004Z,2.22
2023-04-30T10:58:43.136Z,2.30
2023-04-30T11:01:20.882Z,3.20
2023-04-30T11:04:11.624Z,3.53
2023-04-30T11:07:12.067Z,5.40
2023-04-30T11:09:45.581Z,5.50
2023-04-30T11:12:31.865Z,5.33
2023-04-30T11:15:13.917Z,6.77
2023-04-30T11:17:46.469Z,5.93
2023-04-30T11:20:24.049Z,6.37
2023-04-30T11:23:11.579Z,6.37
2023-04-30T11:25:47.638Z,6.97
2023-04-30T11:28:20.123Z,6.20
2023-04-30T11:30:56.868Z,5.80
2023-04-30T11:33:27.830Z,5.00
2023-04-30T11:35:56.622Z,3.77
2023-04-30T11:38:34.486Z,2.87
2023-04-30T11:41:03.155Z,4.30
2023-04-30T11:43:32.267Z,4.30
2023-04-30T11:46:11.853Z,4.68
2023-04-30T11:48:44.627Z,4.80
2023-04-30T11:51:15.899Z,4.30
2023-04-30T11:53:46.097Z,4.62
2023-04-30T11:56:13.897Z,3.87
2023-04-30T11:58:43.771Z,4.10
2023-04-30T12:01:11.812Z,4.75
2023-04-30T12:03:48.159Z,4.13
2023-04-30T12:06:29.346Z,3.17
2023-04-30T12:08:58.872Z,3.72
2023-04-30T12:11:28.604Z,4.10
2023-04-30T12:14:16.818Z,5.10
2023-04-30T12:19:19.653Z,2.55
2023-04-30T12:21:49.138Z,3.30
2023-04-30T12:24:23.236Z,2.50
2023-04-30T12:26:54.077Z,3.05
2023-04-30T12:29:23.133Z,3.00
2023-04-30T12:31:52.211Z,2.28
2023-04-30T12:34:19.817Z,2.42
2023-04-30T12:36:47.219Z,2.30
2023-04-30T12:39:16.461Z,2.42
2023-04-30T12:44:19.331Z,10.00
2023-04-30T12:46:49.273Z,3.92
2023-04-30T12:49:25.066Z,2.78
2023-04-30T12:51:57.039Z,3.40
2023-04-30T12:54:30.137Z,5.45
2023-04-30T12:57:11.026Z,5.37
2023-04-30T12:59:56.233Z,3.65
2023-04-30T13:02:26.334Z,3.75
2023-04-30T13:04:54.760Z,4.53
2023-04-30T13:07:22.530Z,2.90
2023-04-30T13:09:50.190Z,3.22
2023-04-30T13:12:17.555Z,2.67
2023-04-30T13:14:44.974Z,3.10
2023-04-30T13:17:14.099Z,4.17
2023-04-30T13:19:42.113Z,3.22
2023-04-30T13:22:09.508Z,2.63
2023-04-30T13:24:37.573Z,3.70
2023-04-30T13:27:05.247Z,5.00
2023-04-30T13:29:33.053Z,3.87
2023-04-30T13:32:00.891Z,3.85
2023-04-30T13:34:28.351Z,4.27
2023-04-30T13:36:55.833Z,3.77
2023-04-30T13:39:23.896Z,3.50
2023-04-30T13:41:51.274Z,3.50
2023-04-30T13:44:18.855Z,3.30
2023-04-30T13:46:46.775Z,3.40
2023-04-30T13:49:14.305Z,3.00
2023-04-30T13:51:41.781Z,2.78
2023-04-30T13:54:09.698Z,2.78
2023-04-30T13:56:37.113Z,2.80
2023-04-30T13:59:04.554Z,2.70
2023-04-30T14:01:33.768Z,2.95
2023-04-30T14:04:02.297Z,3.17
2023-04-30T14:06:29.903Z,2.53
2023-04-30T14:08:57.466Z,2.50
2023-04-30T14:11:27.591Z,3.33
2023-04-30T14:13:55.463Z,2.80
2023-04-30T14:16:23.190Z,2.65
2023-04-30T14:18:50.890Z,2.90
2023-04-30T14:21:18.393Z,2.97
2023-04-30T14:23:47.251Z,2.78
2023-04-30T14:26:15.186Z,2.45
2023-04-30T14:28:42.549Z,2.80
2023-04-30T14:31:10.872Z,3.03
2023-04-30T14:33:38.716Z,2.97
2023-04-30T14:36:06.952Z,3.12
2023-04-30T14:38:34.488Z,2.78
2023-04-30T14:41:02.157Z,2.92
2023-04-30T14:43:29.563Z,3.08
2023-04-30T14:45:57.042Z,3.05
2023-04-30T14:48:24.994Z,2.42
2023-04-30T14:50:52.471Z,2.25
2023-04-30T14:53:20.936Z,2.80
2023-04-30T14:55:48.647Z,2.97
2023-04-30T14:58:15.959Z,2.78
2023-04-30T15:00:43.333Z,2.17
2023-04-30T15:03:11.180Z,2.80
2023-04-30T15:05:38.591Z,2.42
2023-04-30T15:08:07.056Z,2.37
2023-04-30T15:13:05.349Z,3.67
2023-04-30T15:15:32.773Z,4.00
2023-04-30T15:18:02.087Z,4.55
2023-04-30T15:22:57.049Z,4.35
2023-04-30T15:25:24.911Z,3.72
2023-04-30T15:27:52.366Z,3.87
2023-04-30T15:30:21.866Z,3.20
2023-04-30T15:32:50.428Z,5.45
2023-04-30T15:35:18.012Z,3.40
2023-04-30T15:37:45.468Z,6.95
2023-04-30T15:40:15.702Z,3.78
2023-04-30T15:42:44.108Z,6.97
2023-04-30T15:45:11.881Z,3.92
2023-04-30T15:47:39.879Z,4.22
2023-04-30T15:50:08.303Z,6.07
2023-04-30T15:52:37.700Z,3.87
2023-04-30T15:55:08.231Z,6.78
2023-04-30T15:57:35.563Z,6.12
2023-04-30T16:00:04.539Z,6.93
2023-04-30T16:02:39.126Z,9.15
2023-04-30T16:05:07.486Z,6.97
2023-04-30T16:07:35.532Z,8.30
2023-04-30T16:10:03.253Z,12.55
2023-04-30T16:12:30.983Z,5.72
2023-04-30T16:14:58.491Z,8.88
2023-04-30T16:17:26.014Z,5.62
2023-04-30T16:19:53.877Z,13.87
2023-04-30T16:22:21.906Z,17.62
2023-04-30T16:24:49.180Z,15.57
2023-04-30T16:27:16.899Z,6.57
2023-04-30T16:29:44.191Z,5.60
2023-04-30T16:32:11.865Z,5.68
2023-04-30T16:34:39.755Z,5.15
2023-04-30T16:37:07.344Z,4.50
2023-04-30T16:39:34.658Z,3.72
2023-04-30T16:42:03.076Z,3.78
2023-04-30T16:44:30.592Z,3.30
2023-04-30T16:47:00.023Z,3.78
2023-04-30T16:49:27.764Z,4.00
2023-04-30T16:51:55.139Z,4.07
2023-04-30T16:54:22.679Z,4.50
2023-04-30T16:56:50.407Z,5.93
2023-04-30T16:59:17.755Z,9.40
2023-04-30T17:01:45.976Z,5.65
2023-04-30T17:04:14.378Z,5.10
2023-04-30T17:06:41.809Z,5.25
2023-04-30T17:09:09.301Z,6.30
2023-04-30T17:11:37.027Z,8.50
2023-04-30T17:14:04.362Z,5.57
2023-04-30T17:16:31.931Z,4.33
2023-04-30T17:18:59.602Z,4.93
2023-04-30T17:21:29.785Z,5.40
2023-04-30T17:23:57.288Z,4.97
2023-04-30T17:26:25.156Z,5.10
2023-04-30T17:28:52.580Z,12.60
2023-04-30T17:31:20.076Z,5.40
2023-04-30T17:33:47.862Z,5.70
2023-04-30T17:36:15.501Z,8.03
2023-04-30T17:38:42.837Z,7.30
2023-04-30T17:41:10.552Z,7.50
2023-04-30T17:43:37.893Z,8.07
2023-04-30T17:46:05.248Z,7.83
2023-04-30T17:48:33.147Z,8.43
2023-04-30T17:51:00.938Z,9.73
2023-04-30T17:53:28.330Z,9.73
2023-04-30T17:55:56.227Z,12.87
2023-04-30T17:58:23.808Z,12.17
2023-04-30T18:00:51.240Z,10.80
2023-04-30T18:03:19.025Z,11.63
2023-04-30T18:05:46.592Z,10.97
2023-04-30T18:08:13.980Z,11.27
2023-04-30T18:10:41.798Z,10.00
2023-04-30T18:13:11.072Z,9.93
2023-04-30T18:15:38.404Z,17.87
2023-04-30T18:18:06.646Z,18.57
2023-04-30T18:20:34.136Z,15.57
2023-04-30T18:23:01.446Z,25.83
2023-04-30T18:25:29.454Z,31.20
2023-04-30T18:27:56.822Z,27.10
2023-04-30T18:30:35.183Z,41.07
2023-04-30T18:33:05.344Z,47.73
2023-04-30T18:35:34.432Z,16.97
2023-04-30T18:38:11.189Z,18.27
2023-04-30T18:40:39.341Z,22.57
2023-04-30T18:43:06.868Z,22.40
2023-04-30T18:45:34.177Z,18.07
2023-04-30T18:48:01.909Z,17.63
2023-04-30T18:50:29.406Z,19.33
2023-04-30T18:52:56.863Z,21.67
2023-04-30T18:55:25.524Z,17.70
2023-04-30T18:57:53.011Z,18.03
2023-04-30T19:00:20.456Z,20.23
2023-04-30T19:02:48.468Z,19.60
2023-04-30T19:05:16.557Z,21.90
2023-04-30T19:07:44.024Z,23.67
2023-04-30T19:10:12.118Z,20.60
2023-04-30T19:12:39.734Z,21.63
2023-04-30T19:15:08.484Z,22.40
2023-04-30T19:17:36.676Z,27.10
2023-04-30T19:20:04.937Z,29.17
2023-04-30T19:22:32.254Z,33.88
2023-04-30T19:25:00.133Z,24.10
2023-04-30T19:27:27.508Z,31.97
2023-04-30T19:29:55.177Z,32.63
2023-04-30T19:32:23.573Z,31.07
2023-04-30T19:34:52.620Z,27.13
2023-04-30T19:37:20.012Z,30.02
2023-04-30T19:39:48.128Z,30.23
2023-04-30T19:42:15.753Z,30.10
2023-04-30T19:44:43.120Z,29.67
2023-04-30T19:47:10.832Z,25.57
2023-04-30T19:49:38.231Z,23.17
2023-04-30T19:52:07.866Z,25.40
2023-04-30T19:54:35.974Z,28.33
2023-04-30T19:57:03.858Z,23.13
2023-04-30T19:59:31.641Z,19.63
2023-04-30T20:01:59.980Z,35.53
2023-04-30T20:04:27.752Z,45.50
2023-04-30T20:06:57.613Z,28.73
2023-04-30T20:09:25.308Z,22.83
2023-04-30T20:11:52.966Z,24.57
2023-04-30T20:14:21.674Z,24.63
2023-04-30T20:16:53.827Z,22.65
2023-04-30T20:19:22.420Z,24.07
2023-04-30T20:21:51.132Z,20.90
2023-04-30T20:24:19.338Z,23.83
2023-04-30T20:26:47.100Z,20.77
2023-04-30T20:29:14.961Z,20.10
2023-04-30T20:31:42.441Z,21.27
2023-04-30T20:34:10.240Z,26.50
2023-04-30T20:36:37.640Z,19.60
2023-04-30T20:39:05.111Z,17.87
2023-04-30T20:41:32.861Z,20.23
2023-04-30T20:44:00.833Z,21.83
2023-04-30T20:46:28.588Z,20.57
2023-04-30T20:49:02.630Z,21.90
2023-04-30T20:51:30.447Z,20.70
2023-04-30T20:53:58.331Z,17.80
2023-04-30T20:56:26.071Z,18.03
2023-04-30T20:58:54.773Z,18.47
2023-04-30T21:03:50.322Z,30.73
2023-04-30T21:06:18.057Z,24.80
2023-04-30T21:08:46.680Z,35.10
2023-04-30T21:11:16.713Z,26.73
2023-04-30T21:13:44.295Z,22.63
2023-04-30T21:16:12.071Z,22.20
2023-04-30T21:18:39.414Z,15.37
2023-04-30T21:21:07.804Z,11.27
2023-04-30T21:23:35.539Z,10.18
2023-04-30T21:26:03.136Z,9.20
2023-04-30T21:28:32.790Z,8.37
2023-04-30T21:31:05.872Z,8.47
2023-04-30T21:33:35.022Z,8.87
2023-04-30T21:36:03.255Z,8.27
2023-04-30T21:38:31.613Z,9.97
2023-04-30T21:40:58.985Z,14.10
2023-04-30T21:43:26.673Z,14.83
2023-04-30T21:45:54.017Z,11.50
2023-04-30T21:48:21.210Z,14.03
2023-04-30T21:50:49.830Z,15.73
2023-04-30T21:53:18.545Z,14.23
2023-04-30T21:55:46.069Z,14.18
2023-04-30T21:58:14.239Z,14.80
2023-04-30T22:00:41.805Z,16.87
2023-04-30T22:03:10.424Z,21.43
2023-04-30T22:05:39.942Z,19.90
2023-04-30T22:08:07.501Z,12.53
2023-04-30T22:10:36.432Z,14.80
2023-04-30T22:13:03.701Z,11.25
2023-04-30T22:15:44.516Z,9.03
2023-04-30T22:18:15.884Z,8.17
2023-04-30T22:20:43.160Z,10.80
2023-04-30T22:23:10.457Z,16.33
2023-04-30T22:25:38.057Z,17.87
2023-04-30T22:28:05.775Z,16.63
2023-04-30T22:30:33.181Z,11.90
2023-04-30T22:33:00.884Z,16.40
2023-04-30T22:35:29.011Z,14.47
2023-04-30T22:37:56.609Z,13.88
2023-04-30T22:40:24.649Z,12.43
2023-04-30T22:42:52.464Z,13.33
2023-04-30T22:45:19.916Z,12.57
2023-04-30T22:47:47.851Z,11.97
2023-04-30T22:52:43.076Z,12.40
2023-04-30T22:55:11.889Z,10.83
2023-04-30T22:57:39.294Z,10.90
2023-04-30T23:00:07.209Z,9.90
2023-04-30T23:02:34.903Z,9.88
2023-04-30T23:05:03.353Z,10.37
2023-04-30T23:07:30.516Z,10.63
2023-04-30T23:09:58.498Z,10.63
2023-04-30T23:12:26.233Z,12.27
2023-04-30T23:14:53.794Z,14.23
2023-04-30T23:17:21.529Z,16.27
2023-04-30T23:19:49.718Z,16.73
2023-04-30T23:22:17.243Z,10.48
2023-04-30T23:24:44.897Z,12.40
2023-04-30T23:27:12.565Z,11.93
2023-04-30T23:29:40.107Z,12.30
2023-04-30T23:32:07.746Z,12.87
2023-04-30T23:34:35.302Z,15.13
2023-04-30T23:37:02.564Z,39.47
2023-04-30T23:39:30.189Z,29.70
2023-04-30T23:41:57.842Z,43.80
2023-04-30T23:44:25.122Z,25.40
2023-04-30T23:46:52.856Z,20.07
2023-04-30T23:49:24.596Z,17.37
2023-04-30T23:51:52.343Z,13.97
2023-04-30T23:54:21.034Z,12.57
2023-04-30T23:56:48.385Z,13.30
2023-04-30T23:59:16.371Z,12.10
